createdAt,value
2023-03-26T00:01:42.064Z,24.94
2023-03-26T00:05:41.899Z,24.94
2023-03-26T00:09:42.067Z,24.94
2023-03-26T00:13:42.209Z,24.93
2023-03-26T00:17:42.580Z,24.94
2023-03-26T00:21:42.653Z,24.94
2023-03-26T00:25:42.748Z,24.93
2023-03-26T00:29:42.948Z,24.93
2023-03-26T00:33:45.209Z,24.94
2023-03-26T00:37:43.435Z,24.93
2023-03-26T00:41:43.613Z,24.93
2023-03-26T00:45:43.699Z,24.93
2023-03-26T00:49:46.646Z,24.93
2023-03-26T00:53:43.906Z,24.93
2023-03-26T00:57:44.595Z,24.93
2023-03-26T01:01:43.840Z,24.93
2023-03-26T01:05:43.745Z,24.92
2023-03-26T01:09:43.745Z,24.92
2023-03-26T01:13:43.792Z,24.92
2023-03-26T01:17:44.129Z,24.92
2023-03-26T01:21:44.615Z,24.92
2023-03-26T01:25:44.435Z,24.92
2023-03-26T01:29:44.645Z,24.92
2023-03-26T01:33:45.255Z,24.93
2023-03-26T01:37:45.102Z,24.92
2023-03-26T01:41:45.665Z,24.91
2023-03-26T01:45:45.316Z,24.92
2023-03-26T01:49:45.613Z,24.92
2023-03-26T01:53:45.728Z,24.93
2023-03-26T01:57:46.128Z,24.92
2023-03-26T02:01:46.277Z,24.92
2023-03-26T02:05:46.322Z,24.92
2023-03-26T02:09:46.492Z,24.92
2023-03-26T02:13:47.661Z,24.92
2023-03-26T02:17:47.169Z,24.92
2023-03-26T02:21:47.064Z,24.92
2023-03-26T02:25:49.126Z,24.91
2023-03-26T02:29:47.443Z,24.91
2023-03-26T02:33:48.114Z,24.92
2023-03-26T02:37:48.712Z,24.92
2023-03-26T02:41:48.211Z,24.91
2023-03-26T02:45:48.670Z,24.92
2023-03-26T02:49:48.417Z,24.91
2023-03-26T02:53:48.641Z,24.92
2023-03-26T02:57:49.187Z,24.91
2023-03-26T03:01:49.007Z,24.91
2023-03-26T03:05:49.153Z,24.90
2023-03-26T03:09:49.673Z,24.91
2023-03-26T03:13:49.606Z,24.91
2023-03-26T03:17:49.782Z,24.91
2023-03-26T03:21:50.168Z,24.91
2023-03-26T03:25:50.155Z,24.91
2023-03-26T03:29:50.653Z,24.91
2023-03-26T03:33:50.557Z,24.91
2023-03-26T03:37:50.793Z,24.91
2023-03-26T03:41:51.177Z,24.91
2023-03-26T03:45:51.269Z,24.90
2023-03-26T03:49:51.702Z,24.90
2023-03-26T03:53:51.661Z,24.91
2023-03-26T03:57:51.696Z,24.91
2023-03-26T04:01:51.880Z,24.90
2023-03-26T04:05:52.324Z,24.90
2023-03-26T04:09:52.285Z,24.90
2023-03-26T04:13:52.475Z,24.90
2023-03-26T04:17:52.777Z,24.90
2023-03-26T04:21:52.831Z,24.90
2023-03-26T04:25:53.397Z,24.91
2023-03-26T04:29:53.234Z,24.89
2023-03-26T04:33:53.444Z,24.90
2023-03-26T04:37:53.718Z,24.90
2023-03-26T04:41:54.218Z,24.90
2023-03-26T04:45:54.602Z,24.90
2023-03-26T04:49:54.265Z,24.90
2023-03-26T04:53:54.439Z,24.90
2023-03-26T04:57:54.632Z,24.90
2023-03-26T05:01:54.832Z,24.90
2023-03-26T05:05:55.217Z,24.90
2023-03-26T05:09:55.251Z,24.89
2023-03-26T05:13:55.464Z,24.89
2023-03-26T05:17:55.715Z,24.89
2023-03-26T05:21:56.257Z,24.90
2023-03-26T05:25:56.047Z,24.90
2023-03-26T05:29:56.205Z,24.90
2023-03-26T05:33:56.480Z,24.90
2023-03-26T05:37:56.776Z,24.90
2023-03-26T05:41:56.800Z,24.90
2023-03-26T05:45:57.278Z,24.90
2023-03-26T05:49:57.244Z,24.90
2023-03-26T05:53:57.746Z,24.89
2023-03-26T05:57:57.604Z,24.89
2023-03-26T06:01:58.226Z,24.89
2023-03-26T06:05:58.277Z,24.90
2023-03-26T06:09:58.222Z,24.89
2023-03-26T06:13:58.738Z,24.90
2023-03-26T06:17:58.667Z,24.90
2023-03-26T06:21:59.251Z,24.90
2023-03-26T06:25:59.293Z,24.91
2023-03-26T06:29:59.196Z,24.91
2023-03-26T06:33:59.760Z,24.92
2023-03-26T06:37:59.586Z,24.92
2023-03-26T06:42:00.234Z,24.93
2023-03-26T06:46:00.012Z,24.94
2023-03-26T06:50:00.170Z,24.94
2023-03-26T06:54:00.774Z,24.94
2023-03-26T06:58:00.527Z,24.94
2023-03-26T07:02:00.735Z,24.95
2023-03-26T07:06:00.906Z,24.96
2023-03-26T07:10:01.267Z,24.96
2023-03-26T07:14:01.160Z,24.96
2023-03-26T07:18:01.811Z,25.01
2023-03-26T07:22:01.542Z,25.04
2023-03-26T07:26:01.611Z,25.09
2023-03-26T07:30:01.782Z,25.11
2023-03-26T07:34:02.490Z,25.09
2023-03-26T07:38:02.277Z,25.08
2023-03-26T07:42:02.181Z,25.08
2023-03-26T07:46:02.347Z,25.08
2023-03-26T07:50:02.803Z,25.08
2023-03-26T07:54:02.796Z,25.09
2023-03-26T07:58:03.425Z,25.10
2023-03-26T08:02:02.812Z,25.10
2023-03-26T08:06:02.985Z,25.12
2023-03-26T08:10:03.272Z,25.13
2023-03-26T08:14:03.184Z,25.12
2023-03-26T08:18:03.296Z,25.13
2023-03-26T08:22:03.401Z,25.13
2023-03-26T08:26:03.809Z,25.12
2023-03-26T08:30:03.586Z,25.11
2023-03-26T08:34:03.805Z,25.11
2023-03-26T08:38:03.814Z,25.12
2023-03-26T08:42:04.287Z,25.12
2023-03-26T08:46:04.339Z,25.12
2023-03-26T08:50:04.199Z,25.12
2023-03-26T08:54:05.327Z,25.12
2023-03-26T08:58:04.464Z,25.13
2023-03-26T09:02:04.820Z,25.14
2023-03-26T09:06:04.727Z,25.13
2023-03-26T09:10:05.335Z,25.12
2023-03-26T09:14:04.984Z,25.12
2023-03-26T09:18:05.143Z,25.11
2023-03-26T09:22:05.306Z,25.10
2023-03-26T09:26:05.843Z,25.09
2023-03-26T09:30:05.506Z,25.09
2023-03-26T09:34:05.597Z,25.09
2023-03-26T09:38:05.765Z,25.08
2023-03-26T09:42:06.354Z,25.08
2023-03-26T09:46:06.379Z,25.07
2023-03-26T09:50:06.201Z,25.07
2023-03-26T09:54:06.300Z,25.08
2023-03-26T09:58:06.490Z,25.08
2023-03-26T10:02:06.821Z,25.08
2023-03-26T10:06:06.728Z,25.08
2023-03-26T10:10:07.382Z,25.09
2023-03-26T10:14:06.994Z,25.09
2023-03-26T10:18:26.774Z,25.08
2023-03-26T10:22:08.378Z,25.09
2023-03-26T10:26:07.156Z,25.08
2023-03-26T10:30:07.268Z,25.08
2023-03-26T10:34:07.358Z,25.08
2023-03-26T10:38:07.526Z,25.08
2023-03-26T10:42:07.889Z,25.07
2023-03-26T10:46:07.959Z,25.07
2023-03-26T10:50:08.013Z,25.06
2023-03-26T10:54:08.394Z,25.05
2023-03-26T10:58:08.204Z,25.05
2023-03-26T11:02:09.366Z,25.05
2023-03-26T11:06:08.576Z,25.05
2023-03-26T11:10:08.708Z,25.05
2023-03-26T11:14:08.900Z,25.04
2023-03-26T11:18:09.436Z,25.05
2023-03-26T11:22:09.209Z,25.06
2023-03-26T11:26:09.382Z,25.07
2023-03-26T11:30:09.493Z,25.06
2023-03-26T11:34:09.887Z,25.06
2023-03-26T11:38:09.839Z,25.06
2023-03-26T11:42:10.383Z,25.07
2023-03-26T11:46:10.141Z,25.07
2023-03-26T11:50:10.233Z,25.08
2023-03-26T11:54:10.400Z,25.08
2023-03-26T11:58:11.413Z,25.08
2023-03-26T12:02:10.650Z,25.08
2023-03-26T12:06:10.790Z,25.07
2023-03-26T12:10:18.090Z,25.06
2023-03-26T12:14:11.860Z,25.06
2023-03-26T12:18:10.947Z,25.05
2023-03-26T12:22:10.793Z,25.04
2023-03-26T12:26:10.921Z,25.03
2023-03-26T12:30:11.470Z,25.03
2023-03-26T12:34:11.243Z,25.02
2023-03-26T12:38:11.926Z,25.01
2023-03-26T12:43:40.204Z,25.01
2023-03-26T12:47:55.603Z,25.00
2023-03-26T12:50:12.922Z,24.98
2023-03-26T12:54:11.536Z,24.98
2023-03-26T12:58:13.279Z,24.97
2023-03-26T13:06:31.225Z,24.94
2023-03-26T13:10:31.472Z,24.95
2023-03-26T13:14:30.745Z,24.94
2023-03-26T13:18:30.731Z,24.94
2023-03-26T13:22:30.757Z,24.94
2023-03-26T13:26:30.325Z,24.94
2023-03-26T13:30:30.457Z,24.93
2023-03-26T13:34:30.771Z,24.93
2023-03-26T13:38:30.779Z,24.93
2023-03-26T13:42:30.617Z,24.93
2023-03-26T13:46:31.797Z,24.92
2023-03-26T13:50:31.060Z,24.92
2023-03-26T13:54:31.281Z,24.92
2023-03-26T13:58:34.640Z,24.92
2023-03-26T14:02:31.323Z,24.91
2023-03-26T14:06:31.811Z,24.91
2023-03-26T14:10:31.270Z,24.92
2023-03-26T14:14:31.251Z,24.91
2023-03-26T14:18:31.293Z,24.91
2023-03-26T14:22:31.148Z,24.91
2023-03-26T14:26:31.283Z,24.90
2023-03-26T14:30:31.268Z,24.91
2023-03-26T14:34:31.810Z,24.90
2023-03-26T14:38:31.758Z,24.90
2023-03-26T14:42:31.752Z,24.90
2023-03-26T14:46:32.450Z,24.90
2023-03-26T14:50:32.119Z,24.89
2023-03-26T14:54:32.804Z,24.90
2023-03-26T14:58:32.545Z,24.90
2023-03-26T15:02:32.945Z,24.89
2023-03-26T15:06:33.322Z,24.89
2023-03-26T15:10:33.193Z,24.89
2023-03-26T15:14:33.828Z,24.90
2023-03-26T15:18:34.324Z,24.88
2023-03-26T15:22:33.775Z,24.88
2023-03-26T15:26:34.325Z,24.88
2023-03-26T15:30:33.961Z,24.88
2023-03-26T15:34:34.324Z,24.88
2023-03-26T15:38:33.910Z,24.87
2023-03-26T15:42:35.536Z,24.86
2023-03-26T15:46:33.833Z,24.86
2023-03-26T15:50:33.825Z,24.86
2023-03-26T15:54:33.818Z,24.86
2023-03-26T15:58:33.728Z,24.86
2023-03-26T16:02:33.829Z,24.85
2023-03-26T16:06:33.614Z,24.85
2023-03-26T16:10:33.817Z,24.86
2023-03-26T16:14:33.529Z,24.86
2023-03-26T16:18:33.812Z,24.85
2023-03-26T16:22:34.339Z,24.85
2023-03-26T16:26:34.982Z,24.84
2023-03-26T16:30:34.341Z,24.85
2023-03-26T16:34:34.357Z,24.84
2023-03-26T16:38:35.318Z,24.84
2023-03-26T16:42:34.318Z,24.84
2023-03-26T16:46:34.382Z,24.83
2023-03-26T16:50:34.343Z,24.83
2023-03-26T16:54:34.587Z,24.83
2023-03-26T16:58:34.399Z,24.83
2023-03-26T17:02:34.382Z,24.83
2023-03-26T17:06:34.664Z,24.83
2023-03-26T17:10:34.468Z,24.83
2023-03-26T17:14:34.919Z,24.82
2023-03-26T17:18:34.424Z,24.82
2023-03-26T17:22:34.348Z,24.82
2023-03-26T17:26:34.269Z,24.82
2023-03-26T17:30:34.272Z,24.82
2023-03-26T17:34:34.371Z,24.82
2023-03-26T17:38:34.399Z,24.82
2023-03-26T17:42:34.370Z,24.81
2023-03-26T17:46:34.377Z,24.81
2023-03-26T17:50:34.232Z,24.81
2023-03-26T17:54:34.369Z,24.81
2023-03-26T17:58:34.115Z,24.81
2023-03-26T18:02:34.163Z,24.81
2023-03-26T18:06:34.074Z,24.81
2023-03-26T18:10:34.386Z,24.81
2023-03-26T18:14:34.402Z,24.81
2023-03-26T18:18:33.939Z,24.80
2023-03-26T18:22:34.387Z,24.80
2023-03-26T18:26:33.868Z,24.80
2023-03-26T18:30:34.411Z,24.79
2023-03-26T18:34:34.277Z,24.79
2023-03-26T18:38:35.561Z,24.79
2023-03-26T18:42:34.906Z,24.79
2023-03-26T18:46:34.410Z,24.80
2023-03-26T18:50:34.401Z,24.79
2023-03-26T18:54:34.376Z,24.79
2023-03-26T18:58:34.395Z,24.79
2023-03-26T19:02:34.638Z,24.80
2023-03-26T19:06:34.438Z,24.78
2023-03-26T19:10:34.413Z,24.79
2023-03-26T19:14:34.396Z,24.79
2023-03-26T19:18:34.424Z,24.79
2023-03-26T19:22:34.181Z,24.79
2023-03-26T19:26:34.420Z,24.79
2023-03-26T19:30:34.470Z,24.79
2023-03-26T19:34:34.440Z,24.79
2023-03-26T19:38:34.457Z,24.80
2023-03-26T19:42:42.925Z,24.79
2023-03-26T19:47:47.346Z,24.79
2023-03-26T19:50:35.485Z,24.78
2023-03-26T19:54:33.908Z,24.78
2023-03-26T19:58:33.834Z,24.79
2023-03-26T20:02:33.914Z,24.78
2023-03-26T20:06:43.101Z,24.79
2023-03-26T20:10:35.464Z,24.79
2023-03-26T20:14:34.452Z,24.78
2023-03-26T20:18:34.277Z,24.78
2023-03-26T20:22:34.258Z,24.78
2023-03-26T20:26:34.500Z,24.78
2023-03-26T20:30:37.826Z,24.78
2023-03-26T20:34:34.508Z,24.78
2023-03-26T20:38:39.574Z,24.78
2023-03-26T20:42:35.449Z,24.78
2023-03-26T20:46:34.528Z,24.78
2023-03-26T20:50:35.985Z,24.78
2023-03-26T20:54:34.525Z,24.78
2023-03-26T20:58:34.975Z,24.78
2023-03-26T21:02:34.571Z,24.78
2023-03-26T21:06:34.476Z,24.77
2023-03-26T21:10:34.515Z,24.77
2023-03-26T21:14:34.007Z,24.78
2023-03-26T21:18:33.914Z,24.77
2023-03-26T21:22:33.847Z,24.77
2023-03-26T21:26:33.987Z,24.77
2023-03-26T21:30:35.036Z,24.77
2023-03-26T21:34:34.211Z,24.77
2023-03-26T21:38:33.996Z,24.77
2023-03-26T21:42:33.993Z,24.76
2023-03-26T21:46:34.026Z,24.77
2023-03-26T21:50:33.976Z,24.77
2023-03-26T21:54:33.654Z,24.77
2023-03-26T21:58:33.965Z,24.76
2023-03-26T22:02:33.565Z,24.77
2023-03-26T22:06:33.972Z,24.77
2023-03-26T22:10:33.984Z,24.76
2023-03-26T22:14:33.458Z,24.76
2023-03-26T22:18:33.492Z,24.76
2023-03-26T22:22:33.506Z,24.76
2023-03-26T22:26:33.485Z,24.77
2023-03-26T22:30:33.517Z,24.76
2023-03-26T22:34:33.287Z,24.76
2023-03-26T22:38:33.525Z,24.76
2023-03-26T22:42:33.495Z,24.76
2023-03-26T22:46:33.573Z,24.75
2023-03-26T22:50:33.221Z,24.76
2023-03-26T22:54:33.222Z,24.76
2023-03-26T22:58:33.480Z,24.76
2023-03-26T23:02:33.557Z,24.75
2023-03-26T23:08:59.173Z,24.75
2023-03-26T23:12:59.404Z,24.76
2023-03-26T23:16:59.381Z,24.76
2023-03-26T23:20:59.069Z,24.76
2023-03-26T23:24:59.042Z,24.75
2023-03-26T23:28:59.460Z,24.75
2023-03-26T23:32:59.437Z,24.76
2023-03-26T23:36:59.421Z,24.75
2023-03-26T23:40:59.086Z,24.75
2023-03-26T23:44:59.038Z,24.75
2023-03-26T23:48:59.391Z,24.75
2023-03-26T23:52:59.415Z,24.75
2023-03-26T23:56:59.477Z,24.75
